createdAt,value
2022-11-08T00:01:46.793Z,9.68
2022-11-08T00:04:17.769Z,9.62
2022-11-08T00:07:06.406Z,9.55
2022-11-08T00:09:54.670Z,9.45
2022-11-08T00:12:42.187Z,9.38
2022-11-08T00:15:11.578Z,9.34
2022-11-08T00:17:40.535Z,9.31
2022-11-08T00:20:10.467Z,9.25
2022-11-08T00:22:39.341Z,9.18
2022-11-08T00:25:08.292Z,9.16
2022-11-08T00:27:36.749Z,9.19
2022-11-08T00:30:06.089Z,9.21
2022-11-08T00:32:34.484Z,9.24
2022-11-08T00:35:03.144Z,9.22
2022-11-08T00:37:31.549Z,9.22
2022-11-08T00:40:00.040Z,9.26
2022-11-08T00:42:28.525Z,9.30
2022-11-08T00:44:56.990Z,9.31
2022-11-08T00:47:25.366Z,9.27
2022-11-08T00:49:53.965Z,9.19
2022-11-08T00:52:22.553Z,9.09
2022-11-08T00:54:50.996Z,8.99
2022-11-08T00:57:22.331Z,8.91
2022-11-08T00:59:59.484Z,8.83
2022-11-08T01:02:28.117Z,8.77
2022-11-08T01:04:56.534Z,8.71
2022-11-08T01:07:25.030Z,8.64
2022-11-08T01:09:53.373Z,8.59
2022-11-08T01:12:21.795Z,8.52
2022-11-08T01:14:50.359Z,8.50
2022-11-08T01:17:18.761Z,8.52
2022-11-08T01:19:47.228Z,8.50
2022-11-08T01:22:15.576Z,8.48
2022-11-08T01:24:46.102Z,8.46
2022-11-08T01:27:14.568Z,8.44
2022-11-08T01:29:43.021Z,8.41
2022-11-08T01:32:11.474Z,8.38
2022-11-08T01:34:39.875Z,8.38
2022-11-08T01:37:08.294Z,8.37
2022-11-08T01:39:36.739Z,8.36
2022-11-08T01:42:05.279Z,8.37
2022-11-08T01:44:33.764Z,8.35
2022-11-08T01:47:02.349Z,8.32
2022-11-08T01:49:33.709Z,8.28
2022-11-08T01:52:23.789Z,8.22
2022-11-08T01:54:56.671Z,8.16
2022-11-08T01:57:51.953Z,8.15
2022-11-08T02:00:20.735Z,8.07
2022-11-08T02:02:57.126Z,8.02
2022-11-08T02:05:26.789Z,7.97
2022-11-08T02:08:03.854Z,7.88
2022-11-08T02:10:36.533Z,7.79
2022-11-08T02:13:14.214Z,7.72
2022-11-08T02:15:44.155Z,7.61
2022-11-08T02:18:14.355Z,7.50
2022-11-08T02:21:03.345Z,7.46
2022-11-08T02:23:49.161Z,7.41
2022-11-08T02:26:21.249Z,7.37
2022-11-08T02:28:50.548Z,7.35
2022-11-08T02:31:20.576Z,7.37
2022-11-08T02:33:49.620Z,7.39
2022-11-08T02:36:22.661Z,7.44
2022-11-08T02:38:57.995Z,7.45
2022-11-08T02:41:26.388Z,7.51
2022-11-08T02:43:54.840Z,7.55
2022-11-08T02:46:23.431Z,7.56
2022-11-08T02:48:51.881Z,7.59
2022-11-08T02:51:20.279Z,7.56
2022-11-08T02:53:49.107Z,7.51
2022-11-08T02:56:17.510Z,7.50
2022-11-08T02:58:45.977Z,7.50
2022-11-08T03:01:14.559Z,7.51
2022-11-08T03:03:43.082Z,7.49
2022-11-08T03:06:11.616Z,7.47
2022-11-08T03:08:40.254Z,7.44
2022-11-08T03:11:08.761Z,7.42
2022-11-08T03:13:37.141Z,7.32
2022-11-08T03:16:06.499Z,7.26
2022-11-08T03:18:35.085Z,7.20
2022-11-08T03:21:04.305Z,7.11
2022-11-08T03:23:33.530Z,7.05
2022-11-08T03:26:04.215Z,6.94
2022-11-08T03:28:33.141Z,6.81
2022-11-08T03:31:01.803Z,6.78
2022-11-08T03:33:30.184Z,6.70
2022-11-08T03:35:58.733Z,6.61
2022-11-08T03:38:27.217Z,6.58
2022-11-08T03:40:55.734Z,6.53
2022-11-08T03:43:24.182Z,6.52
2022-11-08T03:45:52.769Z,6.48
2022-11-08T03:48:23.735Z,6.45
2022-11-08T03:50:52.283Z,6.43
2022-11-08T03:53:20.761Z,6.40
2022-11-08T03:55:49.174Z,6.40
2022-11-08T03:58:17.874Z,6.36
2022-11-08T04:00:47.231Z,6.31
2022-11-08T04:03:15.653Z,6.29
2022-11-08T04:05:44.065Z,6.25
2022-11-08T04:08:12.363Z,6.24
2022-11-08T04:10:40.775Z,6.24
2022-11-08T04:13:28.893Z,6.26
2022-11-08T04:15:58.339Z,6.24
2022-11-08T04:18:45.217Z,6.20
2022-11-08T04:21:24.599Z,6.22
2022-11-08T04:23:53.166Z,6.19
2022-11-08T04:26:22.342Z,6.16
2022-11-08T04:28:50.761Z,6.16
2022-11-08T04:31:20.760Z,6.15
2022-11-08T04:33:49.201Z,6.14
2022-11-08T04:36:18.244Z,6.16
2022-11-08T04:38:51.265Z,6.16
2022-11-08T04:41:22.744Z,6.16
2022-11-08T04:43:52.534Z,6.15
2022-11-08T04:46:24.229Z,6.16
2022-11-08T04:48:58.051Z,6.17
2022-11-08T04:51:29.533Z,6.19
2022-11-08T04:54:02.661Z,6.20
2022-11-08T04:56:32.478Z,6.21
2022-11-08T04:59:01.609Z,6.22
2022-11-08T05:01:32.093Z,6.22
2022-11-08T05:04:00.720Z,6.22
2022-11-08T05:06:31.406Z,6.22
2022-11-08T05:09:00.942Z,6.22
2022-11-08T05:11:30.671Z,6.21
2022-11-08T05:13:59.343Z,6.22
2022-11-08T05:16:30.751Z,6.19
2022-11-08T05:18:59.705Z,6.20
2022-11-08T05:21:47.544Z,6.22
2022-11-08T05:24:17.820Z,6.18
2022-11-08T05:26:48.416Z,6.18
2022-11-08T05:29:17.638Z,6.19
2022-11-08T05:31:46.168Z,6.15
2022-11-08T05:34:14.647Z,6.10
2022-11-08T05:36:43.047Z,6.06
2022-11-08T05:39:11.562Z,6.01
2022-11-08T05:41:39.993Z,5.99
2022-11-08T05:44:09.614Z,5.96
2022-11-08T05:46:38.157Z,5.93
2022-11-08T05:49:06.628Z,5.91
2022-11-08T05:51:35.231Z,5.89
2022-11-08T05:54:03.768Z,5.89
2022-11-08T05:56:32.395Z,5.88
2022-11-08T05:59:00.903Z,5.85
2022-11-08T06:01:29.286Z,5.87
2022-11-08T06:03:57.839Z,5.88
2022-11-08T06:06:26.380Z,5.88
2022-11-08T06:08:54.848Z,5.88
2022-11-08T06:11:26.880Z,5.89
2022-11-08T06:13:56.164Z,5.89
2022-11-08T06:16:25.704Z,5.91
2022-11-08T06:18:54.209Z,5.94
2022-11-08T06:21:23.560Z,6.01
2022-11-08T06:23:54.126Z,6.04
2022-11-08T06:26:29.577Z,6.09
2022-11-08T06:28:57.996Z,6.18
2022-11-08T06:31:26.578Z,6.29
2022-11-08T06:33:55.135Z,6.37
2022-11-08T06:36:23.558Z,6.46
2022-11-08T06:38:55.935Z,6.57
2022-11-08T06:41:27.836Z,6.74
2022-11-08T06:43:57.069Z,7.22
2022-11-08T06:46:26.114Z,8.13
2022-11-08T06:48:54.647Z,9.11
2022-11-08T06:51:23.108Z,10.08
2022-11-08T06:53:51.559Z,10.80
2022-11-08T06:56:20.044Z,11.46
2022-11-08T06:58:48.632Z,12.21
2022-11-08T07:01:17.303Z,12.88
2022-11-08T07:03:45.799Z,12.96
2022-11-08T07:06:14.225Z,13.55
2022-11-08T07:08:42.654Z,13.55
2022-11-08T07:11:11.378Z,13.35
2022-11-08T07:13:39.848Z,12.87
2022-11-08T07:16:09.651Z,12.49
2022-11-08T07:18:38.180Z,12.22
2022-11-08T07:21:06.974Z,13.37
2022-11-08T07:23:35.437Z,15.08
2022-11-08T07:26:05.364Z,16.72
2022-11-08T07:28:33.981Z,18.33
2022-11-08T07:31:04.774Z,19.92
2022-11-08T07:33:33.583Z,21.25
2022-11-08T07:36:02.447Z,22.05
2022-11-08T07:38:31.481Z,22.89
2022-11-08T07:41:01.489Z,23.66
2022-11-08T07:43:30.808Z,24.38
2022-11-08T07:46:02.040Z,25.19
2022-11-08T07:48:32.048Z,26.05
2022-11-08T07:51:00.431Z,26.68
2022-11-08T07:53:29.153Z,27.37
2022-11-08T07:55:58.557Z,27.57
